首页
METAR-TAF:

METAR-TAF

机场 :

美里機場

美里, 马来西亚

纬度: 04-20N, 经度: 113-59E, 海拔: 17米

当前天气观测

该预报发布于1小时和9分钟前的03:00 UTC
风速10节,风向西南,在西之间变化
温度 31°C
湿度 75%
气压 1009 hPa
能见度10公里或以上
散云层高于1600英尺

METAR: WBGR 220300Z 23010KT 190V280 9999 SCT016 31/26 Q1009

时间: 12:09 (04:09 UTC)

预报

该预报发布于5小时和9分钟前的23:00 UTC
预报有效从22日的 00点(UTC)到 23日的 00点(UTC)
风速5节,风向南转南东
能见度10公里或以上
少量云层高于1600英尺
短暂存在
从 22日的 04点(UTC)到 22日的 08点(UTC)
风速6节,风向西
能見度: 4000
少量云层高于1500英尺, 积雨云.
散云层高于1600英尺
雷暴, 雨,

TAF: WBGR 212300Z 2200/2300 15005KT 9999 FEW016 TEMPO 2204/2208 26006KT 4000 TSRA FEW015CB SCT016

超过4000个机场的气象观测和天气预报(METAR&TAF报告)。

可查询的气象台以黄色和红色小点在地图上表示。

将鼠标移到小点上方,可查看气象台名称。

然后点击查看天气观测和预报。

如需切换地图:点击带黑十字的绿色按钮放大地图;点击带横线的绿色按钮缩小地图;或者点击绿色箭头查看邻近地区的地图。


METAR-TAF: